Julius Nyerere International Airport

Jump to: basic info | weather | frequencies | runways | comments

Related pages: nearby airports | nearby navaids | notams | map

Basic information (top)

Codes: DAR HTDA
Location: lon -6.878110, lat 39.202599, elev 182 ft / 55 m msl
Status: medium_airport
Scheduled airline service: yes
Links: Wikipedia Mobile

Weather (top)

Current conditions (rec'd 2014/04/20 20:00Z):

HTDA 202000Z 00000KT 9999 FEW022 25/25 Q1013

Airport forecast (rec'd 2014/04/20 00:00Z):

TAF HTDA 202200Z 2100/2206 00000KT 9999 TS/SHRA SCT022 FEW023CB BKN080 PROB30 
      TEMPO 2104/2112 18005KT 5000 TSRA FM 211500 24005KT 9999 SCT023 FEW025CB SCT080 PROB30 
      TEMPO 2202/2206 00000KT 5000 TSRA BKN021 FEW022CB BKN080

Frequencies (top)

Verify before use: may be inaccurate or out of date.

ACC: 119.3 MHz (CON)
APP: 119.6 MHz (APP)
TWR: 118.3 MHz (TWR)

Runways (top)

05/23: 9,843 x 151 ft (3,000 x 46 m) — paved — lighted

14/32: 3,280 x 98 ft (1,000 x 30 m) — paved — not lighted

Latest comments (top)

re: website: I agree, Bill. They do have a web ... [read]

website: It would be quite useful if, like any ... [read]

More... (top)

See also NOTAMs and nearby airports and navaids, or visit the Julius Nyerere International Airport page at the main OurAirports website..